createdAt,value
2022-09-26T00:01:45.339Z,24.50
2022-09-26T00:06:48.209Z,24.63
2022-09-26T00:11:50.899Z,23.83
2022-09-26T00:16:53.903Z,23.63
2022-09-26T00:21:56.290Z,23.27
2022-09-26T00:26:58.640Z,23.60
2022-09-26T00:32:01.096Z,23.50
2022-09-26T00:37:03.448Z,23.00
2022-09-26T00:42:05.835Z,23.13
2022-09-26T00:47:20.196Z,22.20
2022-09-26T00:52:28.303Z,21.13
2022-09-26T00:57:37.975Z,22.97
2022-09-26T01:02:41.189Z,21.77
2022-09-26T01:07:44.550Z,22.07
2022-09-26T01:12:47.675Z,23.87
2022-09-26T01:17:51.007Z,21.37
2022-09-26T01:23:11.834Z,21.57
2022-09-26T01:28:42.684Z,22.17
2022-09-26T01:33:55.862Z,22.40
2022-09-26T01:39:18.729Z,22.50
2022-09-26T01:44:39.712Z,22.33
2022-09-26T01:49:48.363Z,23.40
2022-09-26T01:55:01.340Z,21.03
2022-09-26T02:00:06.674Z,22.93
2022-09-26T02:05:26.584Z,21.57
2022-09-26T02:10:36.580Z,20.87
2022-09-26T02:15:40.538Z,20.93
2022-09-26T02:20:49.355Z,22.77
2022-09-26T02:25:51.694Z,26.43
2022-09-26T02:30:54.965Z,22.33
2022-09-26T02:35:58.782Z,22.37
2022-09-26T02:41:29.094Z,32.57
2022-09-26T02:47:16.090Z,29.63
2022-09-26T02:52:24.536Z,21.70
2022-09-26T02:57:54.027Z,22.40
2022-09-26T03:03:15.843Z,21.83
2022-09-26T03:08:29.349Z,24.77
2022-09-26T03:13:37.822Z,25.20
2022-09-26T03:18:54.705Z,23.73
2022-09-26T03:23:59.116Z,24.50
2022-09-26T03:29:02.422Z,26.50
2022-09-26T03:34:07.013Z,23.30
2022-09-26T03:39:09.500Z,23.00
2022-09-26T03:44:26.161Z,22.17
2022-09-26T03:49:47.047Z,21.77
2022-09-26T03:54:49.462Z,21.47
2022-09-26T03:59:52.585Z,21.73
2022-09-26T04:04:55.264Z,23.43
2022-09-26T04:09:57.600Z,30.77
2022-09-26T04:15:00.248Z,23.63
2022-09-26T04:20:06.954Z,21.60
2022-09-26T04:25:11.030Z,22.00
2022-09-26T04:30:14.370Z,27.20
2022-09-26T04:35:25.478Z,22.80
2022-09-26T04:40:29.185Z,23.80
2022-09-26T04:45:43.370Z,24.40
2022-09-26T04:50:46.523Z,22.87
2022-09-26T04:55:49.807Z,22.37
2022-09-26T05:00:52.641Z,25.53
2022-09-26T05:06:09.034Z,24.33
2022-09-26T05:11:12.419Z,23.60
2022-09-26T05:16:18.636Z,22.33
2022-09-26T05:21:26.403Z,22.60
2022-09-26T05:26:44.357Z,22.07
2022-09-26T05:31:47.048Z,22.70
2022-09-26T05:36:51.953Z,23.93
2022-09-26T05:41:55.151Z,30.20
2022-09-26T05:46:59.671Z,23.63
2022-09-26T05:52:04.106Z,24.73
2022-09-26T05:57:07.098Z,24.67
2022-09-26T06:02:28.426Z,23.07
2022-09-26T06:07:45.757Z,23.10
2022-09-26T06:13:07.951Z,22.20
2022-09-26T06:18:24.439Z,22.47
2022-09-26T06:23:26.992Z,23.60
2022-09-26T06:28:30.626Z,22.83
2022-09-26T06:33:33.589Z,22.57
2022-09-26T06:39:02.340Z,22.10
2022-09-26T06:44:09.854Z,21.87
2022-09-26T06:49:31.285Z,22.87
2022-09-26T06:54:38.713Z,21.80
2022-09-26T06:59:41.005Z,22.23
2022-09-26T07:05:16.779Z,22.33
2022-09-26T07:10:30.558Z,20.23
2022-09-26T07:15:44.285Z,20.00
2022-09-26T07:21:13.351Z,19.93
2022-09-26T07:26:43.293Z,19.43
2022-09-26T07:31:46.242Z,20.10
2022-09-26T07:37:17.891Z,19.13
2022-09-26T07:42:22.090Z,19.47
2022-09-26T07:47:43.796Z,19.90
2022-09-26T07:53:06.243Z,16.87
2022-09-26T07:58:08.731Z,17.50
2022-09-26T08:03:14.084Z,16.43
2022-09-26T08:08:18.298Z,15.27
2022-09-26T08:13:36.062Z,15.30
2022-09-26T08:18:54.601Z,15.40
2022-09-26T08:23:57.645Z,10.30
2022-09-26T08:29:18.643Z,9.40
2022-09-26T08:34:25.979Z,9.33
2022-09-26T08:39:48.247Z,9.53
2022-09-26T08:46:00.268Z,10.30
2022-09-26T08:51:41.413Z,10.13
2022-09-26T08:56:56.298Z,9.83
2022-09-26T09:02:05.037Z,12.47
2022-09-26T09:07:26.729Z,11.43
2022-09-26T09:12:46.804Z,10.33
2022-09-26T09:18:29.222Z,10.93
2022-09-26T09:24:07.527Z,9.83
2022-09-26T09:29:29.699Z,10.40
2022-09-26T09:35:20.587Z,8.83
2022-09-26T09:40:45.544Z,8.60
2022-09-26T09:45:50.339Z,10.23
2022-09-26T09:51:05.740Z,8.60
2022-09-26T09:56:13.119Z,9.00
2022-09-26T10:01:25.193Z,7.80
2022-09-26T10:06:45.820Z,6.97
2022-09-26T10:11:54.781Z,7.07
2022-09-26T10:17:18.815Z,6.43
2022-09-26T10:22:45.558Z,6.83
2022-09-26T10:28:05.291Z,6.57
2022-09-26T10:33:25.228Z,7.37
2022-09-26T10:38:54.431Z,7.93
2022-09-26T10:43:57.651Z,7.77
2022-09-26T10:49:23.697Z,7.60
2022-09-26T10:55:04.200Z,5.13
2022-09-26T11:00:08.623Z,5.63
2022-09-26T11:05:29.911Z,5.17
2022-09-26T11:10:50.532Z,6.40
2022-09-26T11:16:14.711Z,4.70
2022-09-26T11:21:51.368Z,4.53
2022-09-26T11:27:19.457Z,3.27
2022-09-26T11:32:33.542Z,3.73
2022-09-26T11:38:41.291Z,4.47
2022-09-26T11:44:06.962Z,3.73
2022-09-26T11:49:40.296Z,3.57
2022-09-26T11:55:31.149Z,3.50
2022-09-26T12:00:48.102Z,4.50
2022-09-26T12:06:10.315Z,3.87
2022-09-26T12:11:34.209Z,3.17
2022-09-26T12:17:21.191Z,3.90
2022-09-26T12:22:38.954Z,3.43
2022-09-26T12:27:50.730Z,3.07
2022-09-26T12:33:01.988Z,2.57
2022-09-26T12:38:32.483Z,2.03
2022-09-26T12:43:59.539Z,2.83
2022-09-26T12:49:02.018Z,3.13
2022-09-26T12:54:33.128Z,3.30
2022-09-26T12:59:56.148Z,3.10
2022-09-26T13:05:21.109Z,3.17
2022-09-26T13:10:51.907Z,3.90
2022-09-26T13:16:20.539Z,4.57
2022-09-26T13:21:39.270Z,5.07
2022-09-26T13:26:46.992Z,6.60
2022-09-26T13:31:58.851Z,7.57
2022-09-26T13:37:04.622Z,8.83
2022-09-26T13:42:18.615Z,9.33
2022-09-26T13:47:40.849Z,9.40
2022-09-26T13:53:20.387Z,10.33
2022-09-26T13:58:26.556Z,10.37
2022-09-26T14:03:37.921Z,8.87
2022-09-26T14:09:17.694Z,8.80
2022-09-26T14:14:24.496Z,7.40
2022-09-26T14:19:48.739Z,8.20
2022-09-26T14:24:51.783Z,5.13
2022-09-26T14:30:00.856Z,3.97
2022-09-26T14:35:16.794Z,3.20
2022-09-26T14:40:19.145Z,3.20
2022-09-26T14:45:26.889Z,2.80
2022-09-26T14:50:35.321Z,3.00
2022-09-26T14:56:12.722Z,3.20
2022-09-26T15:01:37.534Z,3.10
2022-09-26T15:06:43.957Z,2.40
2022-09-26T15:11:51.702Z,2.70
2022-09-26T15:16:56.923Z,2.60
2022-09-26T15:22:03.069Z,4.67
2022-09-26T15:27:10.805Z,2.50
2022-09-26T15:32:17.169Z,1.97
2022-09-26T15:37:26.926Z,2.27
2022-09-26T15:42:48.936Z,1.70
2022-09-26T15:47:51.737Z,1.60
2022-09-26T15:53:08.258Z,1.23
2022-09-26T15:58:16.432Z,1.60
2022-09-26T16:03:54.017Z,1.23
2022-09-26T16:09:01.630Z,116.90
2022-09-26T16:14:04.395Z,9.30
2022-09-26T16:19:07.696Z,7.10
2022-09-26T16:24:30.622Z,3.53
2022-09-26T16:29:35.443Z,3.30
2022-09-26T16:34:37.778Z,2.50
2022-09-26T16:39:40.143Z,3.97
2022-09-26T16:44:55.720Z,3.50
2022-09-26T16:50:16.156Z,13.43
2022-09-26T16:55:19.299Z,14.93
2022-09-26T17:00:43.525Z,16.40
2022-09-26T17:05:46.001Z,13.93
2022-09-26T17:10:48.630Z,11.10
2022-09-26T17:15:54.777Z,17.87
2022-09-26T17:20:59.158Z,11.33
2022-09-26T17:26:01.833Z,8.43
2022-09-26T17:31:07.619Z,28.50
2022-09-26T17:36:19.460Z,18.90
2022-09-26T17:41:23.072Z,25.27
2022-09-26T17:46:25.664Z,18.33
2022-09-26T17:51:29.302Z,20.03
2022-09-26T17:56:31.610Z,29.80
2022-09-26T18:01:34.991Z,22.90
2022-09-26T18:06:37.881Z,21.40
2022-09-26T18:11:41.729Z,23.07
2022-09-26T18:16:46.549Z,25.00
2022-09-26T18:21:54.508Z,28.87
2022-09-26T18:27:03.428Z,36.63
2022-09-26T18:32:13.110Z,30.93
2022-09-26T18:37:15.469Z,30.10
2022-09-26T18:42:22.876Z,31.90
2022-09-26T18:47:25.215Z,35.20
2022-09-26T18:52:27.544Z,31.90
2022-09-26T18:57:48.599Z,42.80
2022-09-26T19:02:51.083Z,50.33
2022-09-26T19:07:53.546Z,68.27
2022-09-26T19:12:55.965Z,47.13
2022-09-26T19:17:58.263Z,52.53
2022-09-26T19:23:00.696Z,58.93
2022-09-26T19:28:03.078Z,48.63
2022-09-26T19:33:05.506Z,48.23
2022-09-26T19:38:25.976Z,50.70
2022-09-26T19:43:28.297Z,52.50
2022-09-26T19:48:33.998Z,50.60
2022-09-26T19:53:40.406Z,47.80
2022-09-26T19:58:43.063Z,47.50
2022-09-26T20:03:45.547Z,49.37
2022-09-26T20:08:56.433Z,44.07
2022-09-26T20:14:19.869Z,41.50
2022-09-26T20:19:37.227Z,44.47
2022-09-26T20:24:39.933Z,44.43
2022-09-26T20:30:01.059Z,40.60
2022-09-26T20:35:04.886Z,35.27
2022-09-26T20:40:12.759Z,31.47
2022-09-26T20:45:17.894Z,27.73
2022-09-26T20:50:20.850Z,28.57
2022-09-26T20:55:23.167Z,32.40
2022-09-26T21:00:25.598Z,33.30
2022-09-26T21:05:28.040Z,31.50
2022-09-26T21:10:32.487Z,26.33
2022-09-26T21:15:35.242Z,25.83
2022-09-26T21:20:37.567Z,23.43
2022-09-26T21:25:59.544Z,26.40
2022-09-26T21:31:06.472Z,31.37
2022-09-26T21:36:09.114Z,39.10
2022-09-26T21:41:12.319Z,42.43
2022-09-26T21:46:14.818Z,36.37
2022-09-26T21:51:17.301Z,33.97
2022-09-26T21:56:25.656Z,31.30
2022-09-26T22:01:28.064Z,19.47
2022-09-26T22:06:30.400Z,18.27
2022-09-26T22:11:32.835Z,18.90
2022-09-26T22:16:35.245Z,16.53
2022-09-26T22:21:37.780Z,14.30
2022-09-26T22:26:40.164Z,14.20
2022-09-26T22:31:42.695Z,13.43
2022-09-26T22:36:44.982Z,12.43
2022-09-26T22:41:47.322Z,12.70
2022-09-26T22:46:49.638Z,14.60
2022-09-26T22:51:51.956Z,13.00
2022-09-26T22:56:54.430Z,12.23
2022-09-26T23:01:57.072Z,14.87
2022-09-26T23:06:59.394Z,14.07
2022-09-26T23:12:01.836Z,12.43
2022-09-26T23:17:04.368Z,12.40
2022-09-26T23:22:06.868Z,13.33
2022-09-26T23:27:09.196Z,15.50
2022-09-26T23:32:11.545Z,13.57
2022-09-26T23:37:13.866Z,14.30
2022-09-26T23:42:16.251Z,12.97
2022-09-26T23:47:18.534Z,13.30
2022-09-26T23:52:20.907Z,13.63
2022-09-26T23:57:24.107Z,14.20
